sensor_id;sensor_type;location;lat;lon;timestamp;pressure;altitude;pressure_sealevel;temperature;humidity
16595;BME280;8410;52.532;13.336;2022-10-16T00:00:13;100652.94;;;18.25;87.25
16595;BME280;8410;52.532;13.336;2022-10-16T00:02:40;100655.72;;;18.58;86.63
16595;BME280;8410;52.532;13.336;2022-10-16T00:05:08;100665.50;;;18.05;88.96
16595;BME280;8410;52.532;13.336;2022-10-16T00:07:35;100662.72;;;18.56;86.94
16595;BME280;8410;52.532;13.336;2022-10-16T00:10:05;100660.72;;;18.67;85.64
16595;BME280;8410;52.532;13.336;2022-10-16T00:12:32;100671.13;;;17.83;90.03
16595;BME280;8410;52.532;13.336;2022-10-16T00:15:00;100672.63;;;17.97;89.94
16595;BME280;8410;52.532;13.336;2022-10-16T00:17:29;100682.34;;;17.37;91.10
16595;BME280;8410;52.532;13.336;2022-10-16T00:19:56;100673.63;;;17.90;90.53
16595;BME280;8410;52.532;13.336;2022-10-16T00:22:24;100672.69;;;18.37;88.07
16595;BME280;8410;52.532;13.336;2022-10-16T00:24:52;100668.63;;;18.22;89.05
16595;BME280;8410;52.532;13.336;2022-10-16T00:27:21;100683.97;;;17.94;90.80
16595;BME280;8410;52.532;13.336;2022-10-16T00:29:49;100679.72;;;18.32;89.34
16595;BME280;8410;52.532;13.336;2022-10-16T00:32:17;100678.91;;;18.30;87.47
16595;BME280;8410;52.532;13.336;2022-10-16T00:34:44;100689.03;;;18.00;89.37
16595;BME280;8410;52.532;13.336;2022-10-16T00:37:12;100693.00;;;18.20;89.23
16595;BME280;8410;52.532;13.336;2022-10-16T00:39:40;100693.91;;;18.19;89.57
16595;BME280;8410;52.532;13.336;2022-10-16T00:42:10;100693.44;;;18.42;88.10
16595;BME280;8410;52.532;13.336;2022-10-16T00:44:46;100701.69;;;18.20;87.74
16595;BME280;8410;52.532;13.336;2022-10-16T00:47:18;100685.75;;;17.91;91.14
16595;BME280;8410;52.532;13.336;2022-10-16T00:49:49;100686.22;;;18.11;89.52
16595;BME280;8410;52.532;13.336;2022-10-16T00:52:17;100683.44;;;18.62;88.30
16595;BME280;8410;52.532;13.336;2022-10-16T00:54:46;100685.09;;;18.66;87.79
16595;BME280;8410;52.532;13.336;2022-10-16T00:57:14;100690.38;;;18.20;88.19
16595;BME280;8410;52.532;13.336;2022-10-16T00:59:41;100696.34;;;18.26;88.65
16595;BME280;8410;52.532;13.336;2022-10-16T01:02:13;100708.13;;;18.46;88.12
16595;BME280;8410;52.532;13.336;2022-10-16T01:04:42;100705.38;;;18.10;89.71
16595;BME280;8410;52.532;13.336;2022-10-16T01:07:16;100711.78;;;17.92;91.08
16595;BME280;8410;52.532;13.336;2022-10-16T01:10:02;100702.38;;;18.70;88.00
16595;BME280;8410;52.532;13.336;2022-10-16T01:12:38;100698.66;;;18.42;88.98
16595;BME280;8410;52.532;13.336;2022-10-16T01:15:17;100707.81;;;18.61;88.39
16595;BME280;8410;52.532;13.336;2022-10-16T01:17:52;100705.66;;;18.40;88.26
16595;BME280;8410;52.532;13.336;2022-10-16T01:20:26;100712.72;;;18.77;87.09
16595;BME280;8410;52.532;13.336;2022-10-16T01:23:15;100707.38;;;18.83;86.95
16595;BME280;8410;52.532;13.336;2022-10-16T01:26:03;100703.88;;;18.42;87.98
16595;BME280;8410;52.532;13.336;2022-10-16T01:28:39;100715.03;;;18.47;88.06
16595;BME280;8410;52.532;13.336;2022-10-16T01:31:09;100712.53;;;18.42;87.43
16595;BME280;8410;52.532;13.336;2022-10-16T01:33:42;100723.88;;;18.82;86.95
16595;BME280;8410;52.532;13.336;2022-10-16T01:36:13;100723.00;;;18.41;87.02
16595;BME280;8410;52.532;13.336;2022-10-16T01:38:44;100725.91;;;18.67;88.00
16595;BME280;8410;52.532;13.336;2022-10-16T01:41:17;100722.16;;;18.39;87.31
16595;BME280;8410;52.532;13.336;2022-10-16T01:43:50;100726.06;;;18.61;86.76
16595;BME280;8410;52.532;13.336;2022-10-16T01:46:21;100728.25;;;17.93;91.61
16595;BME280;8410;52.532;13.336;2022-10-16T01:48:50;100730.44;;;18.59;90.81
16595;BME280;8410;52.532;13.336;2022-10-16T01:51:19;100738.94;;;17.74;91.71
16595;BME280;8410;52.532;13.336;2022-10-16T01:53:50;100725.59;;;18.41;91.20
16595;BME280;8410;52.532;13.336;2022-10-16T01:56:20;100722.03;;;18.45;91.10
16595;BME280;8410;52.532;13.336;2022-10-16T01:58:53;100727.66;;;18.67;88.00
16595;BME280;8410;52.532;13.336;2022-10-16T02:01:24;100728.38;;;18.73;87.18
16595;BME280;8410;52.532;13.336;2022-10-16T02:03:56;100730.78;;;18.84;86.45
16595;BME280;8410;52.532;13.336;2022-10-16T02:06:25;100744.03;;;18.73;86.22
16595;BME280;8410;52.532;13.336;2022-10-16T02:08:53;100738.22;;;18.61;86.31
16595;BME280;8410;52.532;13.336;2022-10-16T02:11:20;100745.78;;;18.31;89.68
16595;BME280;8410;52.532;13.336;2022-10-16T02:13:53;100742.09;;;18.41;88.15
16595;BME280;8410;52.532;13.336;2022-10-16T02:16:32;100753.97;;;18.11;89.21
16595;BME280;8410;52.532;13.336;2022-10-16T02:19:00;100766.88;;;18.62;88.29
16595;BME280;8410;52.532;13.336;2022-10-16T02:21:29;100778.63;;;18.40;88.84
16595;BME280;8410;52.532;13.336;2022-10-16T02:24:03;100773.00;;;18.60;88.36
16595;BME280;8410;52.532;13.336;2022-10-16T02:26:36;100761.16;;;18.88;87.30
16595;BME280;8410;52.532;13.336;2022-10-16T02:29:12;100756.84;;;18.86;86.67
16595;BME280;8410;52.532;13.336;2022-10-16T02:31:44;100762.84;;;18.91;85.83
16595;BME280;8410;52.532;13.336;2022-10-16T02:34:14;100768.16;;;17.95;88.78
16595;BME280;8410;52.532;13.336;2022-10-16T02:36:42;100761.66;;;18.62;86.88
16595;BME280;8410;52.532;13.336;2022-10-16T02:39:11;100778.13;;;18.64;87.32
16595;BME280;8410;52.532;13.336;2022-10-16T02:41:39;100776.22;;;18.74;86.20
16595;BME280;8410;52.532;13.336;2022-10-16T02:44:06;100774.78;;;18.58;87.09
16595;BME280;8410;52.532;13.336;2022-10-16T02:46:35;100767.78;;;18.60;88.23
16595;BME280;8410;52.532;13.336;2022-10-16T02:49:03;100773.91;;;18.57;87.20
16595;BME280;8410;52.532;13.336;2022-10-16T02:51:30;100768.41;;;18.72;86.19
16595;BME280;8410;52.532;13.336;2022-10-16T02:53:57;100776.22;;;18.74;86.62
16595;BME280;8410;52.532;13.336;2022-10-16T02:56:25;100781.03;;;18.49;87.52
16595;BME280;8410;52.532;13.336;2022-10-16T02:58:52;100774.91;;;18.51;86.67
16595;BME280;8410;52.532;13.336;2022-10-16T03:01:20;100764.19;;;18.65;86.80
16595;BME280;8410;52.532;13.336;2022-10-16T03:03:49;100768.81;;;18.52;86.17
16595;BME280;8410;52.532;13.336;2022-10-16T03:06:16;100782.41;;;18.23;88.56
16595;BME280;8410;52.532;13.336;2022-10-16T03:08:43;100776.53;;;18.57;86.57
16595;BME280;8410;52.532;13.336;2022-10-16T03:11:11;100775.72;;;18.55;86.92
16595;BME280;8410;52.532;13.336;2022-10-16T03:13:38;100783.84;;;18.38;87.27
16595;BME280;8410;52.532;13.336;2022-10-16T03:16:06;100787.84;;;18.11;89.03
16595;BME280;8410;52.532;13.336;2022-10-16T03:18:33;100779.56;;;18.36;87.82
16595;BME280;8410;52.532;13.336;2022-10-16T03:21:02;100795.25;;;18.33;87.70
16595;BME280;8410;52.532;13.336;2022-10-16T03:23:29;100793.38;;;18.41;87.31
16595;BME280;8410;52.532;13.336;2022-10-16T03:25:57;100797.72;;;18.42;87.99
16595;BME280;8410;52.532;13.336;2022-10-16T03:28:25;100792.50;;;18.40;87.52
16595;BME280;8410;52.532;13.336;2022-10-16T03:30:52;100799.44;;;18.41;87.88
16595;BME280;8410;52.532;13.336;2022-10-16T03:33:20;100805.28;;;18.54;87.49
16595;BME280;8410;52.532;13.336;2022-10-16T03:35:51;100815.25;;;18.32;87.61
16595;BME280;8410;52.532;13.336;2022-10-16T03:38:20;100809.91;;;18.38;87.59
16595;BME280;8410;52.532;13.336;2022-10-16T03:40:48;100818.75;;;18.31;87.32
16595;BME280;8410;52.532;13.336;2022-10-16T03:43:15;100819.88;;;18.16;88.51
16595;BME280;8410;52.532;13.336;2022-10-16T03:45:43;100819.88;;;18.16;87.79
16595;BME280;8410;52.532;13.336;2022-10-16T03:48:10;100826.91;;;18.11;89.06
16595;BME280;8410;52.532;13.336;2022-10-16T03:50:38;100841.47;;;18.23;88.73
16595;BME280;8410;52.532;13.336;2022-10-16T03:53:05;100839.75;;;18.22;88.53
16595;BME280;8410;52.532;13.336;2022-10-16T03:55:34;100840.59;;;18.22;88.85
16595;BME280;8410;52.532;13.336;2022-10-16T03:58:02;100846.03;;;18.10;89.93
16595;BME280;8410;52.532;13.336;2022-10-16T04:00:29;100852.97;;;18.11;89.40
16595;BME280;8410;52.532;13.336;2022-10-16T04:02:56;100844.59;;;17.94;89.12
16595;BME280;8410;52.532;13.336;2022-10-16T04:05:24;100837.69;;;17.90;90.34
16595;BME280;8410;52.532;13.336;2022-10-16T04:07:51;100856.47;;;18.10;89.92
16595;BME280;8410;52.532;13.336;2022-10-16T04:10:19;100852.91;;;18.14;89.63
16595;BME280;8410;52.532;13.336;2022-10-16T04:12:47;100861.25;;;17.82;90.49
16595;BME280;8410;52.532;13.336;2022-10-16T04:15:15;100863.44;;;18.06;89.90
16595;BME280;8410;52.532;13.336;2022-10-16T04:17:42;100853.31;;;17.90;89.26
16595;BME280;8410;52.532;13.336;2022-10-16T04:20:10;100861.50;;;18.19;89.65
16595;BME280;8410;52.532;13.336;2022-10-16T04:22:37;100863.25;;;18.20;89.88
16595;BME280;8410;52.532;13.336;2022-10-16T04:25:05;100858.78;;;17.73;90.17
16595;BME280;8410;52.532;13.336;2022-10-16T04:27:33;100858.38;;;17.99;90.70
16595;BME280;8410;52.532;13.336;2022-10-16T04:30:02;100856.53;;;18.07;89.63
16595;BME280;8410;52.532;13.336;2022-10-16T04:32:29;100850.69;;;17.32;93.69
16595;BME280;8410;52.532;13.336;2022-10-16T04:34:57;100836.50;;;17.52;94.04
16595;BME280;8410;52.532;13.336;2022-10-16T04:37:25;100841.06;;;17.37;93.05
16595;BME280;8410;52.532;13.336;2022-10-16T04:39:53;100836.78;;;17.91;91.40
16595;BME280;8410;52.532;13.336;2022-10-16T04:42:21;100842.41;;;18.20;89.05
16595;BME280;8410;52.532;13.336;2022-10-16T04:44:48;100837.13;;;18.23;88.90
16595;BME280;8410;52.532;13.336;2022-10-16T04:47:17;100831.88;;;18.26;88.31
16595;BME280;8410;52.532;13.336;2022-10-16T04:49:44;100827.81;;;18.08;87.62
16595;BME280;8410;52.532;13.336;2022-10-16T04:52:12;100833.03;;;18.08;89.33
16595;BME280;8410;52.532;13.336;2022-10-16T04:54:39;100832.59;;;17.82;90.47
16595;BME280;8410;52.532;13.336;2022-10-16T04:57:07;100842.72;;;18.02;88.53
16595;BME280;8410;52.532;13.336;2022-10-16T04:59:34;100842.94;;;17.87;89.84
16595;BME280;8410;52.532;13.336;2022-10-16T05:02:02;100845.44;;;17.94;88.96
16595;BME280;8410;52.532;13.336;2022-10-16T05:04:31;100855.03;;;17.91;89.53
16595;BME280;8410;52.532;13.336;2022-10-16T05:06:59;100856.81;;;17.89;89.58
16595;BME280;8410;52.532;13.336;2022-10-16T05:09:26;100863.69;;;17.93;89.05
16595;BME280;8410;52.532;13.336;2022-10-16T05:11:53;100872.69;;;17.70;89.36
16595;BME280;8410;52.532;13.336;2022-10-16T05:14:21;100876.94;;;17.74;89.46
16595;BME280;8410;52.532;13.336;2022-10-16T05:16:48;100877.78;;;17.76;89.22
16595;BME280;8410;52.532;13.336;2022-10-16T05:19:16;100888.22;;;17.75;89.77
16595;BME280;8410;52.532;13.336;2022-10-16T05:21:54;100877.97;;;17.64;91.47
16595;BME280;8410;52.532;13.336;2022-10-16T05:24:22;100870.66;;;17.91;89.81
16595;BME280;8410;52.532;13.336;2022-10-16T05:26:50;100869.28;;;17.65;91.20
16595;BME280;8410;52.532;13.336;2022-10-16T05:29:17;100877.75;;;17.16;92.00
16595;BME280;8410;52.532;13.336;2022-10-16T05:31:45;100870.50;;;17.39;92.94
16595;BME280;8410;52.532;13.336;2022-10-16T05:34:12;100865.69;;;17.75;90.96
16595;BME280;8410;52.532;13.336;2022-10-16T05:36:40;100874.22;;;17.87;89.28
16595;BME280;8410;52.532;13.336;2022-10-16T05:39:09;100883.78;;;17.84;89.59
16595;BME280;8410;52.532;13.336;2022-10-16T05:41:36;100888.69;;;18.04;89.07
16595;BME280;8410;52.532;13.336;2022-10-16T05:44:04;100892.94;;;18.10;88.79
16595;BME280;8410;52.532;13.336;2022-10-16T05:46:33;100899.03;;;18.09;89.89
16595;BME280;8410;52.532;13.336;2022-10-16T05:49:00;100896.34;;;18.15;88.72
16595;BME280;8410;52.532;13.336;2022-10-16T05:51:28;100898.22;;;18.07;88.71
16595;BME280;8410;52.532;13.336;2022-10-16T05:53:55;100896.34;;;18.12;88.26
16595;BME280;8410;52.532;13.336;2022-10-16T05:56:24;100889.44;;;18.11;88.14
16595;BME280;8410;52.532;13.336;2022-10-16T05:58:52;100893.50;;;18.29;88.10
16595;BME280;8410;52.532;13.336;2022-10-16T06:01:19;100896.34;;;18.15;88.22
16595;BME280;8410;52.532;13.336;2022-10-16T06:03:50;100892.78;;;18.19;88.63
16595;BME280;8410;52.532;13.336;2022-10-16T06:06:20;100894.59;;;18.14;87.86
16595;BME280;8410;52.532;13.336;2022-10-16T06:08:49;100898.78;;;18.23;88.45
16595;BME280;8410;52.532;13.336;2022-10-16T06:11:18;100908.16;;;18.35;87.43
16595;BME280;8410;52.532;13.336;2022-10-16T06:13:50;100906.53;;;18.27;88.26
16595;BME280;8410;52.532;13.336;2022-10-16T06:16:18;100914.91;;;18.46;86.82
16595;BME280;8410;52.532;13.336;2022-10-16T06:18:46;100909.88;;;18.36;86.89
16595;BME280;8410;52.532;13.336;2022-10-16T06:21:20;100911.63;;;18.37;87.11
16595;BME280;8410;52.532;13.336;2022-10-16T06:23:48;100903.81;;;18.35;87.20
16595;BME280;8410;52.532;13.336;2022-10-16T06:26:18;100911.69;;;18.30;87.21
16595;BME280;8410;52.532;13.336;2022-10-16T06:28:46;100916.81;;;18.37;87.61
16595;BME280;8410;52.532;13.336;2022-10-16T06:31:16;100915.00;;;18.42;87.56
16595;BME280;8410;52.532;13.336;2022-10-16T06:33:43;100929.69;;;18.46;87.38
16595;BME280;8410;52.532;13.336;2022-10-16T06:36:13;100930.66;;;18.39;87.41
16595;BME280;8410;52.532;13.336;2022-10-16T06:38:41;100933.31;;;18.37;87.52
16595;BME280;8410;52.532;13.336;2022-10-16T06:41:11;100940.97;;;18.48;87.09
16595;BME280;8410;52.532;13.336;2022-10-16T06:43:39;100945.19;;;18.54;87.62
16595;BME280;8410;52.532;13.336;2022-10-16T06:46:09;100949.31;;;18.65;86.58
16595;BME280;8410;52.532;13.336;2022-10-16T06:48:38;100950.88;;;18.26;87.03
16595;BME280;8410;52.532;13.336;2022-10-16T06:51:08;100949.81;;;18.38;85.59
16595;BME280;8410;52.532;13.336;2022-10-16T06:53:39;100946.75;;;18.11;89.39
16595;BME280;8410;52.532;13.336;2022-10-16T06:56:28;100952.84;;;18.64;86.81
16595;BME280;8410;52.532;13.336;2022-10-16T06:58:56;100953.56;;;18.72;86.42
16595;BME280;8410;52.532;13.336;2022-10-16T07:01:24;100957.81;;;18.80;85.91
16595;BME280;8410;52.532;13.336;2022-10-16T07:03:53;100971.78;;;18.76;85.94
16595;BME280;8410;52.532;13.336;2022-10-16T07:06:23;100970.81;;;18.83;87.00
16595;BME280;8410;52.532;13.336;2022-10-16T07:08:51;100970.00;;;18.79;85.74
16595;BME280;8410;52.532;13.336;2022-10-16T07:11:20;100979.38;;;18.89;86.17
16595;BME280;8410;52.532;13.336;2022-10-16T07:13:49;100980.00;;;19.02;85.78
16595;BME280;8410;52.532;13.336;2022-10-16T07:16:23;100985.06;;;19.11;85.15
16595;BME280;8410;52.532;13.336;2022-10-16T07:18:51;100995.44;;;19.14;84.93
16595;BME280;8410;52.532;13.336;2022-10-16T07:21:26;100977.91;;;19.21;84.24
16595;BME280;8410;52.532;13.336;2022-10-16T07:23:57;100975.97;;;18.86;84.59
16595;BME280;8410;52.532;13.336;2022-10-16T07:26:26;100978.63;;;18.83;85.72
16595;BME280;8410;52.532;13.336;2022-10-16T07:28:54;100975.28;;;19.21;84.57
16595;BME280;8410;52.532;13.336;2022-10-16T07:31:21;100974.25;;;19.30;83.56
16595;BME280;8410;52.532;13.336;2022-10-16T07:33:50;100976.22;;;18.16;88.89
16595;BME280;8410;52.532;13.336;2022-10-16T07:36:19;100967.84;;;19.01;86.27
16595;BME280;8410;52.532;13.336;2022-10-16T07:38:48;100973.94;;;19.45;84.09
16595;BME280;8410;52.532;13.336;2022-10-16T07:41:20;100991.66;;;19.31;85.18
16595;BME280;8410;52.532;13.336;2022-10-16T07:43:49;100986.91;;;19.50;84.00
16595;BME280;8410;52.532;13.336;2022-10-16T07:46:17;100986.44;;;19.31;84.45
16595;BME280;8410;52.532;13.336;2022-10-16T07:48:45;100980.63;;;19.58;83.45
16595;BME280;8410;52.532;13.336;2022-10-16T07:51:17;100977.09;;;19.61;82.98
16595;BME280;8410;52.532;13.336;2022-10-16T07:53:44;100985.78;;;19.61;83.04
16595;BME280;8410;52.532;13.336;2022-10-16T07:56:15;100977.34;;;19.05;84.85
16595;BME280;8410;52.532;13.336;2022-10-16T07:58:43;100991.56;;;19.34;84.50
16595;BME280;8410;52.532;13.336;2022-10-16T08:01:12;100989.50;;;19.51;83.38
16595;BME280;8410;52.532;13.336;2022-10-16T08:03:41;101006.16;;;18.99;84.94
16595;BME280;8410;52.532;13.336;2022-10-16T08:06:09;101014.03;;;19.43;84.68
16595;BME280;8410;52.532;13.336;2022-10-16T08:08:37;101019.53;;;19.29;83.76
16595;BME280;8410;52.532;13.336;2022-10-16T08:11:05;101022.13;;;19.29;84.35
16595;BME280;8410;52.532;13.336;2022-10-16T08:13:34;101028.00;;;19.40;84.81
16595;BME280;8410;52.532;13.336;2022-10-16T08:16:01;101029.41;;;19.56;82.63
16595;BME280;8410;52.532;13.336;2022-10-16T08:18:34;101018.94;;;19.59;82.62
16595;BME280;8410;52.532;13.336;2022-10-16T08:21:03;101016.53;;;19.04;86.75
16595;BME280;8410;52.532;13.336;2022-10-16T08:23:32;101013.06;;;19.02;86.66
16595;BME280;8410;52.532;13.336;2022-10-16T08:26:03;101014.38;;;19.26;86.81
16595;BME280;8410;52.532;13.336;2022-10-16T08:28:31;101016.06;;;19.73;84.91
16595;BME280;8410;52.532;13.336;2022-10-16T08:31:06;101026.00;;;19.96;83.07
16595;BME280;8410;52.532;13.336;2022-10-16T08:33:35;101018.31;;;20.29;81.93
16595;BME280;8410;52.532;13.336;2022-10-16T08:36:03;101019.06;;;20.72;78.43
16595;BME280;8410;52.532;13.336;2022-10-16T08:38:31;101020.19;;;20.60;79.84
16595;BME280;8410;52.532;13.336;2022-10-16T08:41:14;101014.25;;;20.87;78.66
16595;BME280;8410;52.532;13.336;2022-10-16T08:43:59;101017.09;;;20.80;78.19
16595;BME280;8410;52.532;13.336;2022-10-16T08:46:41;101015.66;;;21.01;78.26
16595;BME280;8410;52.532;13.336;2022-10-16T08:49:16;101019.34;;;20.59;79.50
16595;BME280;8410;52.532;13.336;2022-10-16T08:51:44;101018.78;;;20.82;78.68
16595;BME280;8410;52.532;13.336;2022-10-16T08:54:21;101026.63;;;20.82;78.52
16595;BME280;8410;52.532;13.336;2022-10-16T08:56:50;101023.28;;;21.10;77.68
16595;BME280;8410;52.532;13.336;2022-10-16T08:59:18;101032.72;;;21.17;78.02
16595;BME280;8410;52.532;13.336;2022-10-16T09:01:50;101037.94;;;21.17;78.25
16595;BME280;8410;52.532;13.336;2022-10-16T09:04:42;101041.31;;;20.88;77.44
16595;BME280;8410;52.532;13.336;2022-10-16T09:07:25;101052.94;;;20.76;80.36
16595;BME280;8410;52.532;13.336;2022-10-16T09:10:06;101048.63;;;20.36;79.96
16595;BME280;8410;52.532;13.336;2022-10-16T09:12:43;101052.81;;;20.82;78.94
16595;BME280;8410;52.532;13.336;2022-10-16T09:15:23;101061.06;;;21.00;77.32
16595;BME280;8410;52.532;13.336;2022-10-16T09:17:59;101063.84;;;20.93;78.10
16595;BME280;8410;52.532;13.336;2022-10-16T09:20:36;101059.19;;;21.05;76.90
16595;BME280;8410;52.532;13.336;2022-10-16T09:23:14;101050.50;;;21.03;77.60
16595;BME280;8410;52.532;13.336;2022-10-16T09:25:44;101055.53;;;20.76;79.11
16595;BME280;8410;52.532;13.336;2022-10-16T09:28:14;101050.84;;;20.55;79.75
16595;BME280;8410;52.532;13.336;2022-10-16T09:30:42;101056.19;;;20.86;77.52
16595;BME280;8410;52.532;13.336;2022-10-16T09:33:12;101054.63;;;20.02;81.07
16595;BME280;8410;52.532;13.336;2022-10-16T09:35:43;101067.38;;;20.16;81.16
16595;BME280;8410;52.532;13.336;2022-10-16T09:38:21;101057.47;;;20.69;78.48
16595;BME280;8410;52.532;13.336;2022-10-16T09:40:49;101058.72;;;20.89;78.08
16595;BME280;8410;52.532;13.336;2022-10-16T09:43:32;101072.91;;;20.41;79.05
16595;BME280;8410;52.532;13.336;2022-10-16T09:46:04;101080.25;;;20.25;80.30
16595;BME280;8410;52.532;13.336;2022-10-16T09:48:48;101086.31;;;19.87;80.23
16595;BME280;8410;52.532;13.336;2022-10-16T09:51:20;101081.38;;;20.53;79.58
16595;BME280;8410;52.532;13.336;2022-10-16T09:53:49;101085.66;;;20.58;79.04
16595;BME280;8410;52.532;13.336;2022-10-16T09:56:22;101081.38;;;20.53;79.39
16595;BME280;8410;52.532;13.336;2022-10-16T09:58:51;101093.25;;;20.69;78.46
16595;BME280;8410;52.532;13.336;2022-10-16T10:01:19;101086.00;;;20.80;78.24
16595;BME280;8410;52.532;13.336;2022-10-16T10:03:49;101091.91;;;20.49;77.51
16595;BME280;8410;52.532;13.336;2022-10-16T10:06:22;101089.56;;;20.76;78.03
16595;BME280;8410;52.532;13.336;2022-10-16T10:08:56;101103.81;;;20.24;78.84
16595;BME280;8410;52.532;13.336;2022-10-16T10:11:44;101119.50;;;19.82;80.88
16595;BME280;8410;52.532;13.336;2022-10-16T10:14:20;101111.41;;;19.49;82.92
16595;BME280;8410;52.532;13.336;2022-10-16T10:16:49;101107.50;;;19.72;81.23
16595;BME280;8410;52.532;13.336;2022-10-16T10:19:20;101115.53;;;20.06;81.67
16595;BME280;8410;52.532;13.336;2022-10-16T10:21:48;101114.75;;;20.41;79.04
16595;BME280;8410;52.532;13.336;2022-10-16T10:24:19;101110.44;;;19.98;79.15
16595;BME280;8410;52.532;13.336;2022-10-16T10:26:51;101108.22;;;20.22;78.61
16595;BME280;8410;52.532;13.336;2022-10-16T10:29:30;101107.44;;;20.59;78.06
16595;BME280;8410;52.532;13.336;2022-10-16T10:32:09;101128.66;;;20.03;79.58
16595;BME280;8410;52.532;13.336;2022-10-16T10:34:55;101140.28;;;20.30;79.40
16595;BME280;8410;52.532;13.336;2022-10-16T10:37:37;101140.13;;;20.36;77.85
16595;BME280;8410;52.532;13.336;2022-10-16T10:40:16;101147.22;;;20.31;78.41
16595;BME280;8410;52.532;13.336;2022-10-16T10:42:55;101139.09;;;20.84;76.94
16595;BME280;8410;52.532;13.336;2022-10-16T10:45:27;101129.56;;;20.81;75.96
16595;BME280;8410;52.532;13.336;2022-10-16T10:48:03;101127.16;;;21.08;75.86
16595;BME280;8410;52.532;13.336;2022-10-16T10:50:39;101124.69;;;21.38;74.15
16595;BME280;8410;52.532;13.336;2022-10-16T10:53:18;101119.97;;;21.16;74.87
16595;BME280;8410;52.532;13.336;2022-10-16T10:55:54;101117.00;;;21.30;75.34
16595;BME280;8410;52.532;13.336;2022-10-16T10:58:45;101116.81;;;21.39;74.81
16595;BME280;8410;52.532;13.336;2022-10-16T11:01:22;101117.19;;;21.58;73.56
16595;BME280;8410;52.532;13.336;2022-10-16T11:04:07;101118.97;;;21.56;73.46
16595;BME280;8410;52.532;13.336;2022-10-16T11:06:40;101122.81;;;22.05;72.44
16595;BME280;8410;52.532;13.336;2022-10-16T11:09:14;101126.31;;;21.74;71.79
16595;BME280;8410;52.532;13.336;2022-10-16T11:11:45;101130.31;;;21.56;72.37
16595;BME280;8410;52.532;13.336;2022-10-16T11:14:19;101129.31;;;21.28;73.30
16595;BME280;8410;52.532;13.336;2022-10-16T11:16:51;101125.16;;;21.53;70.98
16595;BME280;8410;52.532;13.336;2022-10-16T11:19:28;101130.31;;;21.88;69.41
16595;BME280;8410;52.532;13.336;2022-10-16T11:22:03;101126.81;;;21.56;71.09
16595;BME280;8410;52.532;13.336;2022-10-16T11:24:37;101130.25;;;21.25;71.69
16595;BME280;8410;52.532;13.336;2022-10-16T11:27:12;101128.34;;;21.65;69.81
16595;BME280;8410;52.532;13.336;2022-10-16T11:29:45;101128.91;;;21.43;71.01
16595;BME280;8410;52.532;13.336;2022-10-16T11:32:22;101129.44;;;21.22;71.44
16595;BME280;8410;52.532;13.336;2022-10-16T11:34:56;101120.09;;;21.47;70.21
16595;BME280;8410;52.532;13.336;2022-10-16T11:37:31;101125.69;;;20.98;71.38
16595;BME280;8410;52.532;13.336;2022-10-16T11:40:16;101125.19;;;20.82;71.57
16595;BME280;8410;52.532;13.336;2022-10-16T11:42:50;101123.84;;;20.65;72.99
16595;BME280;8410;52.532;13.336;2022-10-16T11:45:26;101121.56;;;21.23;71.15
16595;BME280;8410;52.532;13.336;2022-10-16T11:48:00;101117.44;;;21.14;71.72
16595;BME280;8410;52.532;13.336;2022-10-16T11:50:35;101123.19;;;20.93;71.84
16595;BME280;8410;52.532;13.336;2022-10-16T11:53:13;101140.69;;;20.54;72.77
16595;BME280;8410;52.532;13.336;2022-10-16T11:55:43;101131.72;;;21.01;71.36
16595;BME280;8410;52.532;13.336;2022-10-16T11:58:21;101137.97;;;20.96;71.61
16595;BME280;8410;52.532;13.336;2022-10-16T12:00:57;101144.06;;;20.59;70.90
16595;BME280;8410;52.532;13.336;2022-10-16T12:03:29;101139.03;;;20.87;70.39
16595;BME280;8410;52.532;13.336;2022-10-16T12:06:10;101157.13;;;20.59;70.76
16595;BME280;8410;52.532;13.336;2022-10-16T12:08:42;101167.06;;;20.41;71.13
16595;BME280;8410;52.532;13.336;2022-10-16T12:11:24;101173.34;;;20.33;70.35
16595;BME280;8410;52.532;13.336;2022-10-16T12:13:52;101170.56;;;20.40;69.95
16595;BME280;8410;52.532;13.336;2022-10-16T12:16:30;101165.59;;;20.70;69.61
16595;BME280;8410;52.532;13.336;2022-10-16T12:19:12;101171.50;;;20.78;68.17
16595;BME280;8410;52.532;13.336;2022-10-16T12:21:41;101168.06;;;20.76;67.91
16595;BME280;8410;52.532;13.336;2022-10-16T12:24:22;101170.59;;;20.79;67.90
16595;BME280;8410;52.532;13.336;2022-10-16T12:26:53;101160.38;;;21.06;67.05
16595;BME280;8410;52.532;13.336;2022-10-16T12:29:30;101177.41;;;20.47;68.22
16595;BME280;8410;52.532;13.336;2022-10-16T12:31:59;101163.41;;;20.89;67.45
16595;BME280;8410;52.532;13.336;2022-10-16T12:34:30;101171.72;;;21.42;65.98
16595;BME280;8410;52.532;13.336;2022-10-16T12:37:09;101173.44;;;21.07;67.10
16595;BME280;8410;52.532;13.336;2022-10-16T12:39:38;101175.03;;;21.49;65.63
16595;BME280;8410;52.532;13.336;2022-10-16T12:42:20;101177.66;;;21.13;66.33
16595;BME280;8410;52.532;13.336;2022-10-16T12:44:49;101177.91;;;21.04;65.97
16595;BME280;8410;52.532;13.336;2022-10-16T12:47:22;101174.66;;;20.92;66.17
16595;BME280;8410;52.532;13.336;2022-10-16T12:49:52;101183.50;;;20.88;65.92
16595;BME280;8410;52.532;13.336;2022-10-16T12:52:25;101191.41;;;20.85;66.71
16595;BME280;8410;52.532;13.336;2022-10-16T12:54:57;101193.28;;;21.16;64.61
16595;BME280;8410;52.532;13.336;2022-10-16T12:57:37;101191.97;;;20.98;64.50
16595;BME280;8410;52.532;13.336;2022-10-16T13:00:16;101188.25;;;21.08;64.73
16595;BME280;8410;52.532;13.336;2022-10-16T13:03:04;101189.72;;;21.20;63.99
16595;BME280;8410;52.532;13.336;2022-10-16T13:05:48;101188.22;;;21.46;63.43
16595;BME280;8410;52.532;13.336;2022-10-16T13:08:31;101201.50;;;21.01;64.63
16595;BME280;8410;52.532;13.336;2022-10-16T13:11:08;101203.75;;;21.16;64.50